sensor_id;sensor_type;location;lat;lon;timestamp;pressure;altitude;pressure_sealevel;temperature;humidity
57900;BME280;60605;53.716;19.940;2022-07-10T00:03:11;100223.75;;;10.70;97.65
57900;BME280;60605;53.716;19.940;2022-07-10T00:08:15;100218.50;;;10.67;98.18
57900;BME280;60605;53.716;19.940;2022-07-10T00:13:18;100218.16;;;10.67;98.38
57900;BME280;60605;53.716;19.940;2022-07-10T00:18:22;100205.00;;;10.66;98.53
57900;BME280;60605;53.716;19.940;2022-07-10T00:23:25;100199.13;;;10.70;98.86
57900;BME280;60605;53.716;19.940;2022-07-10T00:28:28;100192.20;;;10.74;98.87
57900;BME280;60605;53.716;19.940;2022-07-10T00:33:31;100185.69;;;10.77;98.95
57900;BME280;60605;53.716;19.940;2022-07-10T00:38:35;100182.89;;;10.78;98.95
57900;BME280;60605;53.716;19.940;2022-07-10T00:43:55;100177.21;;;10.76;98.83
57900;BME280;60605;53.716;19.940;2022-07-10T00:48:58;100171.50;;;10.71;98.79
57900;BME280;60605;53.716;19.940;2022-07-10T00:54:02;100163.95;;;10.66;98.69
57900;BME280;60605;53.716;19.940;2022-07-10T00:59:06;100158.85;;;10.60;98.69
57900;BME280;60605;53.716;19.940;2022-07-10T01:04:09;100155.33;;;10.54;98.93
57900;BME280;60605;53.716;19.940;2022-07-10T01:09:13;100151.39;;;10.49;98.87
57900;BME280;60605;53.716;19.940;2022-07-10T01:14:17;100146.29;;;10.43;98.76
57900;BME280;60605;53.716;19.940;2022-07-10T01:19:20;100139.52;;;10.39;99.39
57900;BME280;60605;53.716;19.940;2022-07-10T01:24:23;100137.64;;;10.38;99.86
57900;BME280;60605;53.716;19.940;2022-07-10T01:29:28;100134.40;;;10.35;99.90
57900;BME280;60605;53.716;19.940;2022-07-10T01:34:32;100131.10;;;10.33;99.99
57900;BME280;60605;53.716;19.940;2022-07-10T01:39:35;100129.30;;;10.33;100.00
57900;BME280;60605;53.716;19.940;2022-07-10T01:44:38;100127.89;;;10.33;100.00
57900;BME280;60605;53.716;19.940;2022-07-10T01:49:41;100125.88;;;10.31;100.00
57900;BME280;60605;53.716;19.940;2022-07-10T01:54:46;100123.48;;;10.29;100.00
57900;BME280;60605;53.716;19.940;2022-07-10T01:59:49;100122.27;;;10.23;100.00
57900;BME280;60605;53.716;19.940;2022-07-10T02:04:52;100117.17;;;10.20;100.00
57900;BME280;60605;53.716;19.940;2022-07-10T02:09:56;100113.70;;;10.19;100.00
57900;BME280;60605;53.716;19.940;2022-07-10T02:14:59;100114.27;;;10.19;100.00
57900;BME280;60605;53.716;19.940;2022-07-10T02:20:06;100120.56;;;10.19;100.00
57900;BME280;60605;53.716;19.940;2022-07-10T02:25:09;100116.38;;;10.19;100.00
57900;BME280;60605;53.716;19.940;2022-07-10T02:30:13;100113.50;;;10.19;100.00
57900;BME280;60605;53.716;19.940;2022-07-10T02:35:17;100111.98;;;10.22;100.00
57900;BME280;60605;53.716;19.940;2022-07-10T02:40:20;100108.84;;;10.25;100.00
57900;BME280;60605;53.716;19.940;2022-07-10T02:45:24;100110.48;;;10.30;100.00
57900;BME280;60605;53.716;19.940;2022-07-10T02:50:27;100105.67;;;10.35;100.00
57900;BME280;60605;53.716;19.940;2022-07-10T02:55:30;100104.16;;;10.43;100.00
57900;BME280;60605;53.716;19.940;2022-07-10T03:00:35;100101.20;;;10.52;100.00
57900;BME280;60605;53.716;19.940;2022-07-10T03:05:39;100098.94;;;10.64;100.00
57900;BME280;60605;53.716;19.940;2022-07-10T03:10:42;100095.33;;;10.75;100.00
57900;BME280;60605;53.716;19.940;2022-07-10T03:15:45;100100.61;;;10.84;100.00
57900;BME280;60605;53.716;19.940;2022-07-10T03:20:49;100100.63;;;10.96;100.00
57900;BME280;60605;53.716;19.940;2022-07-10T03:25:52;100102.95;;;11.09;100.00
57900;BME280;60605;53.716;19.940;2022-07-10T03:30:56;100103.45;;;11.21;100.00
57900;BME280;60605;53.716;19.940;2022-07-10T03:36:00;100098.21;;;11.40;100.00
57900;BME280;60605;53.716;19.940;2022-07-10T03:41:04;100090.80;;;11.87;100.00
57900;BME280;60605;53.716;19.940;2022-07-10T03:46:08;100084.07;;;12.68;100.00
57900;BME280;60605;53.716;19.940;2022-07-10T03:51:11;100083.10;;;13.89;99.70
57900;BME280;60605;53.716;19.940;2022-07-10T03:56:15;100077.75;;;15.17;97.61
57900;BME280;60605;53.716;19.940;2022-07-10T04:01:38;100076.44;;;16.53;92.04
57900;BME280;60605;53.716;19.940;2022-07-10T04:06:41;100075.27;;;17.72;86.06
57900;BME280;60605;53.716;19.940;2022-07-10T04:11:44;100072.68;;;18.81;82.15
57900;BME280;60605;53.716;19.940;2022-07-10T04:16:48;100074.90;;;19.85;77.93
57900;BME280;60605;53.716;19.940;2022-07-10T04:21:51;100073.50;;;20.84;73.79
57900;BME280;60605;53.716;19.940;2022-07-10T04:26:55;100078.39;;;21.70;69.75
57900;BME280;60605;53.716;19.940;2022-07-10T04:31:59;100073.77;;;22.44;64.58
57900;BME280;60605;53.716;19.940;2022-07-10T04:37:02;100070.86;;;23.11;62.04
57900;BME280;60605;53.716;19.940;2022-07-10T04:42:07;100071.13;;;23.68;59.02
57900;BME280;60605;53.716;19.940;2022-07-10T04:47:10;100071.27;;;24.32;57.69
57900;BME280;60605;53.716;19.940;2022-07-10T04:52:14;100071.10;;;25.17;54.76
57900;BME280;60605;53.716;19.940;2022-07-10T04:57:18;100070.21;;;25.92;51.44
57900;BME280;60605;53.716;19.940;2022-07-10T05:02:21;100071.45;;;26.37;50.13
57900;BME280;60605;53.716;19.940;2022-07-10T05:07:25;100066.87;;;25.37;48.41
57900;BME280;60605;53.716;19.940;2022-07-10T05:12:28;100060.31;;;24.20;50.77
57900;BME280;60605;53.716;19.940;2022-07-10T05:17:32;100062.14;;;24.80;51.85
57900;BME280;60605;53.716;19.940;2022-07-10T05:22:35;100063.10;;;26.14;50.54
57900;BME280;60605;53.716;19.940;2022-07-10T05:27:39;100060.96;;;27.40;48.13
57900;BME280;60605;53.716;19.940;2022-07-10T05:32:44;100057.32;;;28.46;44.93
57900;BME280;60605;53.716;19.940;2022-07-10T05:37:48;100056.30;;;29.10;42.58
57900;BME280;60605;53.716;19.940;2022-07-10T05:42:51;100055.86;;;28.52;42.22
57900;BME280;60605;53.716;19.940;2022-07-10T05:47:55;100050.42;;;27.79;43.00
57900;BME280;60605;53.716;19.940;2022-07-10T05:52:58;100050.59;;;26.40;44.53
57900;BME280;60605;53.716;19.940;2022-07-10T05:58:02;100043.35;;;25.96;46.71
57900;BME280;60605;53.716;19.940;2022-07-10T06:03:05;100043.52;;;25.54;47.04
57900;BME280;60605;53.716;19.940;2022-07-10T06:08:10;100045.90;;;24.00;48.53
57900;BME280;60605;53.716;19.940;2022-07-10T06:13:14;100048.48;;;22.11;52.13
57900;BME280;60605;53.716;19.940;2022-07-10T06:18:17;100037.27;;;20.55;56.10
57900;BME280;60605;53.716;19.940;2022-07-10T06:23:21;100037.83;;;19.61;60.33
57900;BME280;60605;53.716;19.940;2022-07-10T06:28:24;100030.20;;;19.09;63.34
57900;BME280;60605;53.716;19.940;2022-07-10T06:33:28;100028.73;;;18.97;65.19
57900;BME280;60605;53.716;19.940;2022-07-10T06:38:31;100023.28;;;19.21;65.60
57900;BME280;60605;53.716;19.940;2022-07-10T06:43:35;100022.11;;;19.75;65.67
57900;BME280;60605;53.716;19.940;2022-07-10T06:48:39;100017.13;;;20.41;63.23
57900;BME280;60605;53.716;19.940;2022-07-10T06:53:44;100008.14;;;20.54;62.62
57900;BME280;60605;53.716;19.940;2022-07-10T06:58:47;100009.22;;;20.32;63.11
57900;BME280;60605;53.716;19.940;2022-07-10T07:03:56;100013.16;;;20.03;62.91
57900;BME280;60605;53.716;19.940;2022-07-10T07:08:59;100014.38;;;19.92;63.81
57900;BME280;60605;53.716;19.940;2022-07-10T07:14:03;100016.29;;;20.11;63.63
57900;BME280;60605;53.716;19.940;2022-07-10T07:19:07;100015.56;;;20.07;63.23
57900;BME280;60605;53.716;19.940;2022-07-10T07:24:11;100018.40;;;19.83;63.84
57900;BME280;60605;53.716;19.940;2022-07-10T07:29:16;100022.38;;;19.73;64.52
57900;BME280;60605;53.716;19.940;2022-07-10T07:34:20;100025.80;;;19.82;64.09
57900;BME280;60605;53.716;19.940;2022-07-10T07:39:23;100016.36;;;19.93;63.96
57900;BME280;60605;53.716;19.940;2022-07-10T07:44:27;100016.40;;;20.21;64.03
57900;BME280;60605;53.716;19.940;2022-07-10T07:49:31;100019.69;;;20.36;63.11
57900;BME280;60605;53.716;19.940;2022-07-10T07:54:34;100020.28;;;20.25;63.00
57900;BME280;60605;53.716;19.940;2022-07-10T07:59:38;100017.13;;;19.99;63.20
57900;BME280;60605;53.716;19.940;2022-07-10T08:04:42;100012.84;;;20.06;63.66
57900;BME280;60605;53.716;19.940;2022-07-10T08:09:46;100012.45;;;20.63;63.52
57900;BME280;60605;53.716;19.940;2022-07-10T08:14:49;100007.45;;;21.91;61.12
57900;BME280;60605;53.716;19.940;2022-07-10T08:19:53;100005.96;;;24.14;58.48
57900;BME280;60605;53.716;19.940;2022-07-10T08:24:57;100002.59;;;25.98;52.27
57900;BME280;60605;53.716;19.940;2022-07-10T08:30:01;100001.55;;;26.99;47.79
57900;BME280;60605;53.716;19.940;2022-07-10T08:35:09;99993.16;;;28.46;45.65
57900;BME280;60605;53.716;19.940;2022-07-10T08:40:15;99996.69;;;30.47;41.41
57900;BME280;60605;53.716;19.940;2022-07-10T08:45:19;100005.87;;;28.64;40.24
57900;BME280;60605;53.716;19.940;2022-07-10T08:50:23;100016.77;;;25.99;44.99
57900;BME280;60605;53.716;19.940;2022-07-10T08:55:27;100013.84;;;24.02;49.71
57900;BME280;60605;53.716;19.940;2022-07-10T09:00:31;100008.80;;;22.74;54.18
57900;BME280;60605;53.716;19.940;2022-07-10T09:05:35;100003.76;;;22.13;57.30
57900;BME280;60605;53.716;19.940;2022-07-10T09:10:39;100000.45;;;22.39;58.63
57900;BME280;60605;53.716;19.940;2022-07-10T09:15:48;99993.35;;;23.36;57.30
57900;BME280;60605;53.716;19.940;2022-07-10T09:20:52;99992.17;;;25.51;52.62
57900;BME280;60605;53.716;19.940;2022-07-10T09:25:55;99998.21;;;25.43;50.00
57900;BME280;60605;53.716;19.940;2022-07-10T09:30:59;99995.30;;;25.49;49.50
57900;BME280;60605;53.716;19.940;2022-07-10T09:36:08;99994.09;;;25.52;49.48
57900;BME280;60605;53.716;19.940;2022-07-10T09:46:24;99996.77;;;25.57;47.78
57900;BME280;60605;53.716;19.940;2022-07-10T09:51:32;99995.86;;;25.47;48.99
57900;BME280;60605;53.716;19.940;2022-07-10T09:56:40;99998.59;;;24.86;49.26
57900;BME280;60605;53.716;19.940;2022-07-10T10:01:50;99995.23;;;24.38;50.67
57900;BME280;60605;53.716;19.940;2022-07-10T10:06:57;99989.92;;;24.55;51.26
57900;BME280;60605;53.716;19.940;2022-07-10T10:12:16;99991.98;;;24.63;50.22
57900;BME280;60605;53.716;19.940;2022-07-10T10:17:22;99996.84;;;24.58;50.16
57900;BME280;60605;53.716;19.940;2022-07-10T10:22:29;99991.77;;;24.35;49.73
57900;BME280;60605;53.716;19.940;2022-07-10T10:27:34;99990.13;;;24.71;50.90
57900;BME280;60605;53.716;19.940;2022-07-10T10:32:40;99993.06;;;25.20;49.86
57900;BME280;60605;53.716;19.940;2022-07-10T10:37:50;100001.31;;;24.78;49.41
57900;BME280;60605;53.716;19.940;2022-07-10T10:42:54;100008.96;;;23.38;51.01
57900;BME280;60605;53.716;19.940;2022-07-10T10:53:29;100060.20;;;20.04;55.03
57900;BME280;60605;53.716;19.940;2022-07-10T11:09:31;100071.27;;;16.85;67.47
57900;BME280;60605;53.716;19.940;2022-07-10T11:14:37;100073.00;;;16.35;69.32
57900;BME280;60605;53.716;19.940;2022-07-10T11:19:41;100068.92;;;15.90;71.74
57900;BME280;60605;53.716;19.940;2022-07-10T11:25:08;100070.35;;;15.56;73.04
57900;BME280;60605;53.716;19.940;2022-07-10T11:30:18;100064.02;;;15.39;74.84
57900;BME280;60605;53.716;19.940;2022-07-10T11:35:21;100059.36;;;15.37;76.70
57900;BME280;60605;53.716;19.940;2022-07-10T11:40:25;100064.89;;;15.42;77.41
57900;BME280;60605;53.716;19.940;2022-07-10T11:45:32;100060.38;;;15.51;78.23
57900;BME280;60605;53.716;19.940;2022-07-10T11:50:38;100073.23;;;15.62;78.93
57900;BME280;60605;53.716;19.940;2022-07-10T11:55:41;100081.52;;;15.79;79.58
57900;BME280;60605;53.716;19.940;2022-07-10T12:01:00;100084.27;;;15.96;79.91
57900;BME280;60605;53.716;19.940;2022-07-10T12:06:06;100086.54;;;16.09;79.84
57900;BME280;60605;53.716;19.940;2022-07-10T12:11:12;100091.31;;;16.28;79.88
57900;BME280;60605;53.716;19.940;2022-07-10T12:16:16;100100.02;;;16.61;80.63
57900;BME280;60605;53.716;19.940;2022-07-10T12:21:20;100110.59;;;17.03;80.43
57900;BME280;60605;53.716;19.940;2022-07-10T12:26:35;100115.13;;;17.37;79.39
57900;BME280;60605;53.716;19.940;2022-07-10T12:31:41;100127.37;;;17.63;78.33
57900;BME280;60605;53.716;19.940;2022-07-10T12:36:50;100139.84;;;17.82;78.60
57900;BME280;60605;53.716;19.940;2022-07-10T12:42:03;100147.67;;;17.98;78.55
57900;BME280;60605;53.716;19.940;2022-07-10T12:47:08;100154.54;;;18.05;78.22
57900;BME280;60605;53.716;19.940;2022-07-10T12:52:21;100158.31;;;18.00;78.24
57900;BME280;60605;53.716;19.940;2022-07-10T12:57:32;100153.09;;;17.88;78.77
57900;BME280;60605;53.716;19.940;2022-07-10T13:02:35;100154.21;;;17.70;78.99
57900;BME280;60605;53.716;19.940;2022-07-10T13:07:39;100150.52;;;17.65;79.56
57900;BME280;60605;53.716;19.940;2022-07-10T13:12:42;100149.29;;;17.75;80.23
57900;BME280;60605;53.716;19.940;2022-07-10T13:17:45;100150.13;;;17.86;79.59
57900;BME280;60605;53.716;19.940;2022-07-10T13:22:49;100147.11;;;17.92;77.97
57900;BME280;60605;53.716;19.940;2022-07-10T13:27:53;100141.73;;;17.94;77.75
57900;BME280;60605;53.716;19.940;2022-07-10T13:32:57;100136.30;;;17.98;77.68
57900;BME280;60605;53.716;19.940;2022-07-10T13:38:04;100132.38;;;18.05;78.01
57900;BME280;60605;53.716;19.940;2022-07-10T13:43:07;100131.70;;;18.11;77.03
57900;BME280;60605;53.716;19.940;2022-07-10T13:48:12;100130.58;;;18.11;75.94
57900;BME280;60605;53.716;19.940;2022-07-10T13:53:16;100129.42;;;18.04;75.44
57900;BME280;60605;53.716;19.940;2022-07-10T13:58:20;100126.70;;;18.03;76.29
57900;BME280;60605;53.716;19.940;2022-07-10T14:03:25;100122.74;;;18.06;76.48
57900;BME280;60605;53.716;19.940;2022-07-10T14:08:30;100126.38;;;18.03;76.72
57900;BME280;60605;53.716;19.940;2022-07-10T14:13:33;100136.58;;;18.10;77.25
57900;BME280;60605;53.716;19.940;2022-07-10T14:18:38;100135.87;;;18.26;77.46
57900;BME280;60605;53.716;19.940;2022-07-10T14:23:44;100144.30;;;18.55;76.45
57900;BME280;60605;53.716;19.940;2022-07-10T14:28:48;100153.86;;;19.00;76.21
57900;BME280;60605;53.716;19.940;2022-07-10T14:33:51;100159.20;;;19.49;74.23
57900;BME280;60605;53.716;19.940;2022-07-10T14:38:56;100156.86;;;19.64;73.82
57900;BME280;60605;53.716;19.940;2022-07-10T14:43:59;100164.13;;;19.83;74.53
57900;BME280;60605;53.716;19.940;2022-07-10T14:49:04;100166.73;;;20.25;73.63
57900;BME280;60605;53.716;19.940;2022-07-10T14:54:07;100168.02;;;20.45;72.10
57900;BME280;60605;53.716;19.940;2022-07-10T14:59:11;100167.55;;;20.59;70.92
57900;BME280;60605;53.716;19.940;2022-07-10T15:04:17;100176.34;;;20.52;68.90
57900;BME280;60605;53.716;19.940;2022-07-10T15:09:21;100171.33;;;20.29;67.62
57900;BME280;60605;53.716;19.940;2022-07-10T15:14:24;100174.48;;;19.99;67.27
57900;BME280;60605;53.716;19.940;2022-07-10T15:19:30;100173.83;;;19.45;66.94
57900;BME280;60605;53.716;19.940;2022-07-10T15:24:34;100176.09;;;18.86;68.47
57900;BME280;60605;53.716;19.940;2022-07-10T15:29:38;100172.27;;;18.37;70.28
57900;BME280;60605;53.716;19.940;2022-07-10T15:34:41;100165.83;;;17.98;71.84
57900;BME280;60605;53.716;19.940;2022-07-10T15:39:45;100169.96;;;17.68;73.09
57900;BME280;60605;53.716;19.940;2022-07-10T15:44:49;100171.59;;;17.48;74.10
57900;BME280;60605;53.716;19.940;2022-07-10T15:49:52;100170.61;;;17.34;75.19
57900;BME280;60605;53.716;19.940;2022-07-10T15:54:56;100174.41;;;17.20;76.03
57900;BME280;60605;53.716;19.940;2022-07-10T16:00:00;100178.48;;;17.06;76.87
57900;BME280;60605;53.716;19.940;2022-07-10T16:05:04;100186.55;;;16.92;78.08
57900;BME280;60605;53.716;19.940;2022-07-10T16:10:09;100187.75;;;16.81;78.58
57900;BME280;60605;53.716;19.940;2022-07-10T16:15:13;100186.80;;;16.71;79.18
57900;BME280;60605;53.716;19.940;2022-07-10T16:20:19;100190.48;;;16.63;79.96
57900;BME280;60605;53.716;19.940;2022-07-10T16:25:23;100193.05;;;16.53;80.32
57900;BME280;60605;53.716;19.940;2022-07-10T16:30:46;100193.33;;;16.37;81.19
57900;BME280;60605;53.716;19.940;2022-07-10T16:35:49;100197.93;;;16.30;82.09
57900;BME280;60605;53.716;19.940;2022-07-10T16:40:53;100195.25;;;16.30;82.84
57900;BME280;60605;53.716;19.940;2022-07-10T16:45:58;100186.23;;;16.33;83.41
57900;BME280;60605;53.716;19.940;2022-07-10T16:51:02;100180.30;;;16.39;84.15
57900;BME280;60605;53.716;19.940;2022-07-10T16:56:06;100183.01;;;16.49;84.36
57900;BME280;60605;53.716;19.940;2022-07-10T17:01:12;100183.13;;;16.56;84.36
57900;BME280;60605;53.716;19.940;2022-07-10T17:06:16;100185.99;;;16.55;84.27
57900;BME280;60605;53.716;19.940;2022-07-10T17:11:19;100187.77;;;16.49;84.46
57900;BME280;60605;53.716;19.940;2022-07-10T17:16:23;100187.67;;;16.43;84.55
57900;BME280;60605;53.716;19.940;2022-07-10T17:21:27;100185.02;;;16.38;85.17
57900;BME280;60605;53.716;19.940;2022-07-10T17:26:51;100175.88;;;16.34;84.62
57900;BME280;60605;53.716;19.940;2022-07-10T17:31:55;100176.27;;;16.29;84.76
57900;BME280;60605;53.716;19.940;2022-07-10T17:37:00;100178.38;;;16.23;84.99
57900;BME280;60605;53.716;19.940;2022-07-10T17:42:05;100181.36;;;16.23;85.38
57900;BME280;60605;53.716;19.940;2022-07-10T17:47:09;100179.71;;;16.21;85.33
57900;BME280;60605;53.716;19.940;2022-07-10T17:52:13;100188.59;;;16.13;85.58
57900;BME280;60605;53.716;19.940;2022-07-10T17:57:16;100193.27;;;16.04;85.49
57900;BME280;60605;53.716;19.940;2022-07-10T18:02:21;100199.80;;;15.94;85.05
57900;BME280;60605;53.716;19.940;2022-07-10T18:07:24;100209.05;;;15.82;85.15
57900;BME280;60605;53.716;19.940;2022-07-10T18:12:28;100211.42;;;15.71;85.40
57900;BME280;60605;53.716;19.940;2022-07-10T18:17:32;100214.08;;;15.58;85.32
57900;BME280;60605;53.716;19.940;2022-07-10T18:22:36;100218.63;;;15.43;85.38
57900;BME280;60605;53.716;19.940;2022-07-10T18:27:40;100214.41;;;15.26;85.69
57900;BME280;60605;53.716;19.940;2022-07-10T18:32:44;100224.54;;;15.04;85.53
57900;BME280;60605;53.716;19.940;2022-07-10T18:38:06;100230.61;;;14.79;85.94
57900;BME280;60605;53.716;19.940;2022-07-10T18:43:10;100232.23;;;14.54;86.42
57900;BME280;60605;53.716;19.940;2022-07-10T18:48:13;100237.51;;;14.30;86.99
57900;BME280;60605;53.716;19.940;2022-07-10T18:53:18;100242.98;;;14.07;87.72
57900;BME280;60605;53.716;19.940;2022-07-10T18:58:22;100250.47;;;13.87;88.25
57900;BME280;60605;53.716;19.940;2022-07-10T19:03:25;100258.54;;;13.67;88.90
57900;BME280;60605;53.716;19.940;2022-07-10T19:08:30;100255.27;;;13.48;89.50
57900;BME280;60605;53.716;19.940;2022-07-10T19:13:34;100253.02;;;13.29;90.26
57900;BME280;60605;53.716;19.940;2022-07-10T19:18:38;100255.02;;;13.09;90.68
57900;BME280;60605;53.716;19.940;2022-07-10T19:23:44;100246.88;;;12.91;91.35
57900;BME280;60605;53.716;19.940;2022-07-10T19:28:50;100248.25;;;12.73;92.04
57900;BME280;60605;53.716;19.940;2022-07-10T19:33:54;100248.49;;;12.58;92.68
57900;BME280;60605;53.716;19.940;2022-07-10T19:38:57;100259.80;;;12.45;93.05
57900;BME280;60605;53.716;19.940;2022-07-10T19:44:02;100269.77;;;12.31;93.55
57900;BME280;60605;53.716;19.940;2022-07-10T19:49:07;100274.34;;;12.20;94.27
57900;BME280;60605;53.716;19.940;2022-07-10T19:54:10;100279.06;;;12.11;94.80
57900;BME280;60605;53.716;19.940;2022-07-10T19:59:15;100281.61;;;12.04;95.50
57900;BME280;60605;53.716;19.940;2022-07-10T20:04:21;100277.70;;;11.97;95.87
57900;BME280;60605;53.716;19.940;2022-07-10T20:09:28;100279.15;;;11.92;96.40
57900;BME280;60605;53.716;19.940;2022-07-10T20:14:32;100276.67;;;11.86;96.70
57900;BME280;60605;53.716;19.940;2022-07-10T20:19:37;100278.25;;;11.82;97.11
57900;BME280;60605;53.716;19.940;2022-07-10T20:24:44;100279.47;;;11.77;97.46
57900;BME280;60605;53.716;19.940;2022-07-10T20:29:48;100280.38;;;11.72;97.86
57900;BME280;60605;53.716;19.940;2022-07-10T20:34:56;100285.27;;;11.66;98.03
57900;BME280;60605;53.716;19.940;2022-07-10T20:40:04;100286.87;;;11.61;98.30
57900;BME280;60605;53.716;19.940;2022-07-10T20:45:10;100280.38;;;11.58;98.69
57900;BME280;60605;53.716;19.940;2022-07-10T20:50:16;100286.20;;;11.52;98.40
57900;BME280;60605;53.716;19.940;2022-07-10T20:55:21;100287.39;;;11.44;98.49
57900;BME280;60605;53.716;19.940;2022-07-10T21:00:26;100288.50;;;11.37;98.57
57900;BME280;60605;53.716;19.940;2022-07-10T21:05:30;100288.07;;;11.29;98.77
57900;BME280;60605;53.716;19.940;2022-07-10T21:10:38;100288.48;;;11.21;99.11
57900;BME280;60605;53.716;19.940;2022-07-10T21:15:45;100290.96;;;11.17;99.44
57900;BME280;60605;53.716;19.940;2022-07-10T21:20:49;100306.67;;;11.13;99.84
57900;BME280;60605;53.716;19.940;2022-07-10T21:25:53;100309.18;;;11.17;100.00
57900;BME280;60605;53.716;19.940;2022-07-10T21:30:56;100310.79;;;11.22;100.00
57900;BME280;60605;53.716;19.940;2022-07-10T21:35:59;100308.06;;;11.26;100.00
57900;BME280;60605;53.716;19.940;2022-07-10T21:41:04;100305.23;;;11.26;100.00
57900;BME280;60605;53.716;19.940;2022-07-10T21:46:08;100306.11;;;11.25;100.00
57900;BME280;60605;53.716;19.940;2022-07-10T21:51:12;100306.44;;;11.26;100.00
57900;BME280;60605;53.716;19.940;2022-07-10T21:56:15;100296.55;;;11.28;100.00
57900;BME280;60605;53.716;19.940;2022-07-10T22:01:18;100286.20;;;11.33;100.00
57900;BME280;60605;53.716;19.940;2022-07-10T22:06:22;100280.20;;;11.39;100.00
57900;BME280;60605;53.716;19.940;2022-07-10T22:11:26;100277.50;;;11.45;100.00
57900;BME280;60605;53.716;19.940;2022-07-10T22:16:30;100275.45;;;11.50;100.00
57900;BME280;60605;53.716;19.940;2022-07-10T22:21:34;100268.05;;;11.56;100.00
57900;BME280;60605;53.716;19.940;2022-07-10T22:26:37;100261.98;;;11.63;100.00
57900;BME280;60605;53.716;19.940;2022-07-10T22:31:41;100270.33;;;11.69;100.00
57900;BME280;60605;53.716;19.940;2022-07-10T22:36:44;100269.96;;;11.75;100.00
57900;BME280;60605;53.716;19.940;2022-07-10T22:41:48;100278.02;;;11.82;100.00
57900;BME280;60605;53.716;19.940;2022-07-10T22:46:51;100275.14;;;11.89;100.00
57900;BME280;60605;53.716;19.940;2022-07-10T22:51:56;100278.05;;;11.95;100.00
57900;BME280;60605;53.716;19.940;2022-07-10T22:57:01;100268.84;;;11.99;100.00
57900;BME280;60605;53.716;19.940;2022-07-10T23:02:05;100259.98;;;12.00;100.00
57900;BME280;60605;53.716;19.940;2022-07-10T23:07:08;100255.52;;;12.00;100.00
57900;BME280;60605;53.716;19.940;2022-07-10T23:12:12;100249.91;;;12.01;100.00
57900;BME280;60605;53.716;19.940;2022-07-10T23:17:15;100252.27;;;12.02;100.00
57900;BME280;60605;53.716;19.940;2022-07-10T23:22:19;100250.88;;;12.05;100.00
57900;BME280;60605;53.716;19.940;2022-07-10T23:27:23;100250.11;;;12.09;100.00
57900;BME280;60605;53.716;19.940;2022-07-10T23:32:28;100247.98;;;12.12;100.00
57900;BME280;60605;53.716;19.940;2022-07-10T23:37:31;100246.94;;;12.15;100.00
57900;BME280;60605;53.716;19.940;2022-07-10T23:42:35;100248.64;;;12.17;100.00
57900;BME280;60605;53.716;19.940;2022-07-10T23:47:40;100251.49;;;12.19;100.00
57900;BME280;60605;53.716;19.940;2022-07-10T23:52:44;100256.96;;;12.21;100.00
57900;BME280;60605;53.716;19.940;2022-07-10T23:57:47;100265.02;;;12.24;100.00
